SPHI

Capitan FAP Jose A Quinones Gonzales International Airport

Chiclayo, Peru
SPHI 190500Z 1906/2006 18010KT CAVOK TX25/1919Z TN17/1911Z FM190900 18006KT 9999 SCT015 TEMPO 1911/1913 BKN010 FM191800 21016KT CAVOK
Issued Valid From Valid To
Oct-19 @ 05:00 UTC
(4 hours ago)
Oct-19 @ 06:00 UTC
(3 hours ago)
Oct-20 @ 06:00 UTC
(in 21 hours)
Expired Click to View Oct-19 @ 06:00 to Oct-19 @ 09:00
SPHI 190500Z 1906/2006 18010KT CAVOK TX25/1919Z TN17/1911Z
Wind Visibility Clouds
180° at 10 knots 10,000+ meters
  • No significant clouds
From Oct-19 @ 09:00 to Oct-19 @ 18:00
FM190900 18006KT 9999 SCT015
Wind Visibility Clouds
180° at 6 knots 10,000+ meters
  • Scattered at 1,500' AGL
Temporary Oct-19 @ 11:00 to Oct-19 @ 13:00
TEMPO 1911/1913 BKN010
Clouds
  • Broken at 1,000' AGL
From Oct-19 @ 18:00 to Oct-20 @ 06:00
FM191800 21016KT CAVOK
Wind Visibility Clouds Conditions
210° at 16 knots 10,000+ meters
  • No significant clouds
SPHI 190500Z 1906/2006 18010KT CAVOK TX25/1919Z TN17/1911Z FM190900 18006KT 9999 SCT015 TEMPO 1911/1913 BKN010 FM191800 21016KT CAVOK
Issued Oct-19 @ 05:00 UTC
(4 hours ago)
Valid From Oct-19 @ 06:00 UTC
(3 hours ago)
Valid To Oct-20 @ 06:00 UTC
(in 21 hours)
Oct-19 @ 06:00 - Oct-19 @ 09:00
Wind Visibility
180° at 10 knots 10,000+ meters
Clouds
  • No significant clouds
From Oct-19 @ 09:00 - Oct-19 @ 18:00
Wind Visibility
180° at 6 knots 10,000+ meters
Clouds
  • Scattered at 1,500' AGL
Temporary Oct-19 @ 11:00 - Oct-19 @ 13:00
Clouds
  • Broken at 1,000' AGL
From Oct-19 @ 18:00 - Oct-20 @ 06:00
Wind Visibility
210° at 16 knots 10,000+ meters
Clouds
  • No significant clouds
Conditions